sensor_id;sensor_type;location;lat;lon;timestamp;P1;durP1;ratioP1;P2;durP2;ratioP2
10511;SDS011;5304;48.604;2.096;2024-02-21T00:01:22;16.87;;;6.70;;
10511;SDS011;5304;48.604;2.096;2024-02-21T00:04:06;13.27;;;5.90;;
10511;SDS011;5304;48.604;2.096;2024-02-21T00:06:51;13.00;;;5.77;;
10511;SDS011;5304;48.604;2.096;2024-02-21T00:09:35;12.67;;;5.73;;
10511;SDS011;5304;48.604;2.096;2024-02-21T00:12:19;14.73;;;6.23;;
10511;SDS011;5304;48.604;2.096;2024-02-21T00:15:03;12.17;;;6.23;;
10511;SDS011;5304;48.604;2.096;2024-02-21T00:17:48;16.93;;;7.97;;
10511;SDS011;5304;48.604;2.096;2024-02-21T00:20:33;11.00;;;6.53;;
10511;SDS011;5304;48.604;2.096;2024-02-21T00:23:17;17.53;;;6.43;;
10511;SDS011;5304;48.604;2.096;2024-02-21T00:26:01;11.00;;;6.13;;
10511;SDS011;5304;48.604;2.096;2024-02-21T00:28:46;17.00;;;6.40;;
10511;SDS011;5304;48.604;2.096;2024-02-21T00:31:30;14.63;;;5.90;;
10511;SDS011;5304;48.604;2.096;2024-02-21T00:34:14;18.80;;;6.80;;
10511;SDS011;5304;48.604;2.096;2024-02-21T00:36:59;14.20;;;6.30;;
10511;SDS011;5304;48.604;2.096;2024-02-21T00:39:43;12.50;;;6.60;;
10511;SDS011;5304;48.604;2.096;2024-02-21T00:42:28;17.07;;;6.63;;
10511;SDS011;5304;48.604;2.096;2024-02-21T00:45:12;11.10;;;6.03;;
10511;SDS011;5304;48.604;2.096;2024-02-21T00:47:56;15.40;;;6.17;;
10511;SDS011;5304;48.604;2.096;2024-02-21T00:50:41;13.27;;;6.00;;
10511;SDS011;5304;48.604;2.096;2024-02-21T00:53:25;15.27;;;6.87;;
10511;SDS011;5304;48.604;2.096;2024-02-21T00:56:09;15.40;;;6.37;;
10511;SDS011;5304;48.604;2.096;2024-02-21T00:58:54;14.80;;;6.37;;
10511;SDS011;5304;48.604;2.096;2024-02-21T01:01:38;12.83;;;5.93;;
10511;SDS011;5304;48.604;2.096;2024-02-21T01:04:25;13.07;;;5.77;;
10511;SDS011;5304;48.604;2.096;2024-02-21T01:07:09;10.17;;;5.97;;
10511;SDS011;5304;48.604;2.096;2024-02-21T01:09:53;17.93;;;6.80;;
10511;SDS011;5304;48.604;2.096;2024-02-21T01:12:38;16.60;;;6.27;;
10511;SDS011;5304;48.604;2.096;2024-02-21T01:15:22;13.07;;;6.13;;
10511;SDS011;5304;48.604;2.096;2024-02-21T01:18:07;14.63;;;6.67;;
10511;SDS011;5304;48.604;2.096;2024-02-21T01:20:51;15.03;;;7.00;;
10511;SDS011;5304;48.604;2.096;2024-02-21T01:23:35;12.00;;;6.10;;
10511;SDS011;5304;48.604;2.096;2024-02-21T01:26:20;12.60;;;6.63;;
10511;SDS011;5304;48.604;2.096;2024-02-21T01:29:04;13.77;;;6.83;;
10511;SDS011;5304;48.604;2.096;2024-02-21T01:31:49;13.60;;;6.97;;
10511;SDS011;5304;48.604;2.096;2024-02-21T01:34:33;13.63;;;6.70;;
10511;SDS011;5304;48.604;2.096;2024-02-21T01:37:17;10.37;;;6.03;;
10511;SDS011;5304;48.604;2.096;2024-02-21T01:40:02;10.80;;;6.70;;
10511;SDS011;5304;48.604;2.096;2024-02-21T01:42:46;14.53;;;7.20;;
10511;SDS011;5304;48.604;2.096;2024-02-21T01:45:32;13.77;;;6.90;;
10511;SDS011;5304;48.604;2.096;2024-02-21T01:48:17;13.30;;;7.03;;
10511;SDS011;5304;48.604;2.096;2024-02-21T01:51:02;17.77;;;7.17;;
10511;SDS011;5304;48.604;2.096;2024-02-21T01:53:48;18.10;;;7.33;;
10511;SDS011;5304;48.604;2.096;2024-02-21T01:56:34;17.93;;;7.60;;
10511;SDS011;5304;48.604;2.096;2024-02-21T01:59:19;14.93;;;6.73;;
10511;SDS011;5304;48.604;2.096;2024-02-21T02:02:04;14.93;;;6.93;;
10511;SDS011;5304;48.604;2.096;2024-02-21T02:04:49;15.67;;;7.73;;
10511;SDS011;5304;48.604;2.096;2024-02-21T02:07:34;20.53;;;7.87;;
10511;SDS011;5304;48.604;2.096;2024-02-21T02:10:18;11.43;;;6.87;;
10511;SDS011;5304;48.604;2.096;2024-02-21T02:13:03;13.57;;;7.20;;
10511;SDS011;5304;48.604;2.096;2024-02-21T02:15:47;18.37;;;7.20;;
10511;SDS011;5304;48.604;2.096;2024-02-21T02:18:32;20.30;;;7.50;;
10511;SDS011;5304;48.604;2.096;2024-02-21T02:21:29;15.47;;;7.80;;
10511;SDS011;5304;48.604;2.096;2024-02-21T02:24:16;14.87;;;7.37;;
10511;SDS011;5304;48.604;2.096;2024-02-21T02:27:01;15.03;;;7.00;;
10511;SDS011;5304;48.604;2.096;2024-02-21T02:29:45;13.73;;;7.53;;
10511;SDS011;5304;48.604;2.096;2024-02-21T02:32:30;12.90;;;6.90;;
10511;SDS011;5304;48.604;2.096;2024-02-21T02:35:14;12.33;;;7.13;;
10511;SDS011;5304;48.604;2.096;2024-02-21T02:37:58;14.77;;;7.43;;
10511;SDS011;5304;48.604;2.096;2024-02-21T02:40:43;16.93;;;6.93;;
10511;SDS011;5304;48.604;2.096;2024-02-21T02:43:27;14.80;;;6.83;;
10511;SDS011;5304;48.604;2.096;2024-02-21T02:46:11;16.40;;;6.87;;
10511;SDS011;5304;48.604;2.096;2024-02-21T02:48:55;11.70;;;6.17;;
10511;SDS011;5304;48.604;2.096;2024-02-21T02:51:42;11.63;;;6.47;;
10511;SDS011;5304;48.604;2.096;2024-02-21T02:54:27;11.60;;;6.10;;
10511;SDS011;5304;48.604;2.096;2024-02-21T02:57:11;14.17;;;7.03;;
10511;SDS011;5304;48.604;2.096;2024-02-21T02:59:55;12.83;;;7.23;;
10511;SDS011;5304;48.604;2.096;2024-02-21T03:02:41;14.93;;;6.83;;
10511;SDS011;5304;48.604;2.096;2024-02-21T03:05:26;13.03;;;8.07;;
10511;SDS011;5304;48.604;2.096;2024-02-21T03:08:11;13.50;;;7.47;;
10511;SDS011;5304;48.604;2.096;2024-02-21T03:10:55;14.00;;;7.67;;
10511;SDS011;5304;48.604;2.096;2024-02-21T03:13:39;13.63;;;7.37;;
10511;SDS011;5304;48.604;2.096;2024-02-21T03:16:24;15.23;;;8.13;;
10511;SDS011;5304;48.604;2.096;2024-02-21T03:19:09;14.70;;;8.07;;
10511;SDS011;5304;48.604;2.096;2024-02-21T03:21:53;17.80;;;7.47;;
10511;SDS011;5304;48.604;2.096;2024-02-21T03:24:38;11.17;;;7.17;;
10511;SDS011;5304;48.604;2.096;2024-02-21T03:27:22;17.37;;;7.00;;
10511;SDS011;5304;48.604;2.096;2024-02-21T03:30:07;10.97;;;6.97;;
10511;SDS011;5304;48.604;2.096;2024-02-21T03:32:52;17.33;;;7.57;;
10511;SDS011;5304;48.604;2.096;2024-02-21T03:35:36;11.50;;;6.67;;
10511;SDS011;5304;48.604;2.096;2024-02-21T03:38:21;13.63;;;7.83;;
10511;SDS011;5304;48.604;2.096;2024-02-21T03:41:05;15.43;;;7.70;;
10511;SDS011;5304;48.604;2.096;2024-02-21T03:43:49;17.00;;;7.33;;
10511;SDS011;5304;48.604;2.096;2024-02-21T03:46:33;14.83;;;7.13;;
10511;SDS011;5304;48.604;2.096;2024-02-21T03:49:17;15.80;;;7.40;;
10511;SDS011;5304;48.604;2.096;2024-02-21T03:52:02;12.70;;;6.60;;
10511;SDS011;5304;48.604;2.096;2024-02-21T03:54:46;16.80;;;6.97;;
10511;SDS011;5304;48.604;2.096;2024-02-21T03:57:31;12.20;;;6.90;;
10511;SDS011;5304;48.604;2.096;2024-02-21T04:00:15;18.67;;;8.03;;
10511;SDS011;5304;48.604;2.096;2024-02-21T04:03:00;11.33;;;6.47;;
10511;SDS011;5304;48.604;2.096;2024-02-21T04:05:44;12.83;;;7.10;;
10511;SDS011;5304;48.604;2.096;2024-02-21T04:08:28;14.70;;;7.47;;
10511;SDS011;5304;48.604;2.096;2024-02-21T04:11:12;10.87;;;7.30;;
10511;SDS011;5304;48.604;2.096;2024-02-21T04:13:56;9.70;;;6.37;;
10511;SDS011;5304;48.604;2.096;2024-02-21T04:16:41;12.13;;;6.90;;
10511;SDS011;5304;48.604;2.096;2024-02-21T04:19:25;14.03;;;6.83;;
10511;SDS011;5304;48.604;2.096;2024-02-21T04:22:09;13.33;;;6.60;;
10511;SDS011;5304;48.604;2.096;2024-02-21T04:24:53;12.00;;;6.87;;
10511;SDS011;5304;48.604;2.096;2024-02-21T04:27:38;11.67;;;6.87;;
10511;SDS011;5304;48.604;2.096;2024-02-21T04:30:23;13.93;;;7.53;;
10511;SDS011;5304;48.604;2.096;2024-02-21T04:33:07;12.70;;;6.87;;
10511;SDS011;5304;48.604;2.096;2024-02-21T04:35:51;11.93;;;6.60;;
10511;SDS011;5304;48.604;2.096;2024-02-21T04:38:38;10.10;;;6.63;;
10511;SDS011;5304;48.604;2.096;2024-02-21T04:41:22;12.00;;;6.73;;
10511;SDS011;5304;48.604;2.096;2024-02-21T04:44:07;9.07;;;5.70;;
10511;SDS011;5304;48.604;2.096;2024-02-21T04:46:52;16.03;;;7.13;;
10511;SDS011;5304;48.604;2.096;2024-02-21T04:49:36;12.93;;;6.53;;
10511;SDS011;5304;48.604;2.096;2024-02-21T04:52:20;12.23;;;6.60;;
10511;SDS011;5304;48.604;2.096;2024-02-21T04:55:04;12.13;;;6.67;;
10511;SDS011;5304;48.604;2.096;2024-02-21T04:57:49;11.63;;;7.03;;
10511;SDS011;5304;48.604;2.096;2024-02-21T05:00:34;14.10;;;6.73;;
10511;SDS011;5304;48.604;2.096;2024-02-21T05:03:18;14.30;;;6.67;;
10511;SDS011;5304;48.604;2.096;2024-02-21T05:06:02;11.37;;;7.20;;
10511;SDS011;5304;48.604;2.096;2024-02-21T05:08:47;18.03;;;7.07;;
10511;SDS011;5304;48.604;2.096;2024-02-21T05:11:31;14.03;;;6.90;;
10511;SDS011;5304;48.604;2.096;2024-02-21T05:14:15;12.73;;;6.33;;
10511;SDS011;5304;48.604;2.096;2024-02-21T05:17:00;13.93;;;5.97;;
10511;SDS011;5304;48.604;2.096;2024-02-21T05:19:44;14.10;;;6.20;;
10511;SDS011;5304;48.604;2.096;2024-02-21T05:22:28;13.57;;;7.23;;
10511;SDS011;5304;48.604;2.096;2024-02-21T05:25:13;13.70;;;7.10;;
10511;SDS011;5304;48.604;2.096;2024-02-21T05:27:57;12.13;;;6.47;;
10511;SDS011;5304;48.604;2.096;2024-02-21T05:30:45;16.73;;;7.10;;
10511;SDS011;5304;48.604;2.096;2024-02-21T05:33:29;19.60;;;7.70;;
10511;SDS011;5304;48.604;2.096;2024-02-21T05:36:13;13.30;;;6.20;;
10511;SDS011;5304;48.604;2.096;2024-02-21T05:38:58;14.23;;;6.60;;
10511;SDS011;5304;48.604;2.096;2024-02-21T05:41:42;10.07;;;6.60;;
10511;SDS011;5304;48.604;2.096;2024-02-21T05:44:26;12.90;;;6.47;;
10511;SDS011;5304;48.604;2.096;2024-02-21T05:47:11;12.90;;;6.80;;
10511;SDS011;5304;48.604;2.096;2024-02-21T05:49:59;10.50;;;5.97;;
10511;SDS011;5304;48.604;2.096;2024-02-21T05:52:43;11.60;;;6.53;;
10511;SDS011;5304;48.604;2.096;2024-02-21T05:55:27;12.83;;;6.73;;
10511;SDS011;5304;48.604;2.096;2024-02-21T05:58:12;12.47;;;7.13;;
10511;SDS011;5304;48.604;2.096;2024-02-21T06:00:57;14.80;;;6.83;;
10511;SDS011;5304;48.604;2.096;2024-02-21T06:03:41;14.30;;;6.37;;
10511;SDS011;5304;48.604;2.096;2024-02-21T06:06:25;11.10;;;6.53;;
10511;SDS011;5304;48.604;2.096;2024-02-21T06:09:09;14.47;;;6.37;;
10511;SDS011;5304;48.604;2.096;2024-02-21T06:11:54;12.40;;;6.57;;
10511;SDS011;5304;48.604;2.096;2024-02-21T06:14:38;16.13;;;6.80;;
10511;SDS011;5304;48.604;2.096;2024-02-21T06:17:22;12.20;;;6.60;;
10511;SDS011;5304;48.604;2.096;2024-02-21T06:20:06;9.47;;;6.50;;
10511;SDS011;5304;48.604;2.096;2024-02-21T06:22:52;9.77;;;6.23;;
10511;SDS011;5304;48.604;2.096;2024-02-21T06:25:37;12.93;;;6.57;;
10511;SDS011;5304;48.604;2.096;2024-02-21T06:28:22;13.90;;;5.80;;
10511;SDS011;5304;48.604;2.096;2024-02-21T06:31:06;11.87;;;6.33;;
10511;SDS011;5304;48.604;2.096;2024-02-21T06:33:50;12.83;;;5.77;;
10511;SDS011;5304;48.604;2.096;2024-02-21T06:36:35;15.10;;;5.97;;
10511;SDS011;5304;48.604;2.096;2024-02-21T06:39:19;13.27;;;6.20;;
10511;SDS011;5304;48.604;2.096;2024-02-21T06:42:07;12.70;;;5.37;;
10511;SDS011;5304;48.604;2.096;2024-02-21T06:44:51;10.53;;;6.47;;
10511;SDS011;5304;48.604;2.096;2024-02-21T06:47:36;15.57;;;5.80;;
10511;SDS011;5304;48.604;2.096;2024-02-21T06:50:20;9.53;;;5.37;;
10511;SDS011;5304;48.604;2.096;2024-02-21T06:53:05;14.03;;;6.00;;
10511;SDS011;5304;48.604;2.096;2024-02-21T06:55:49;14.17;;;5.93;;
10511;SDS011;5304;48.604;2.096;2024-02-21T06:58:33;13.50;;;5.30;;
10511;SDS011;5304;48.604;2.096;2024-02-21T07:01:17;8.67;;;5.90;;
10511;SDS011;5304;48.604;2.096;2024-02-21T07:04:02;13.00;;;5.87;;
10511;SDS011;5304;48.604;2.096;2024-02-21T07:06:46;12.87;;;5.73;;
10511;SDS011;5304;48.604;2.096;2024-02-21T07:09:31;15.10;;;5.73;;
10511;SDS011;5304;48.604;2.096;2024-02-21T07:12:15;13.20;;;5.80;;
10511;SDS011;5304;48.604;2.096;2024-02-21T07:14:59;8.67;;;5.80;;
10511;SDS011;5304;48.604;2.096;2024-02-21T07:17:43;10.53;;;6.23;;
10511;SDS011;5304;48.604;2.096;2024-02-21T07:20:28;9.90;;;5.87;;
10511;SDS011;5304;48.604;2.096;2024-02-21T07:23:12;12.87;;;6.33;;
10511;SDS011;5304;48.604;2.096;2024-02-21T07:25:57;11.13;;;5.53;;
10511;SDS011;5304;48.604;2.096;2024-02-21T07:28:41;13.60;;;5.50;;
10511;SDS011;5304;48.604;2.096;2024-02-21T07:31:26;9.27;;;5.13;;
10511;SDS011;5304;48.604;2.096;2024-02-21T07:34:10;9.33;;;6.10;;
10511;SDS011;5304;48.604;2.096;2024-02-21T07:36:55;10.13;;;5.87;;
10511;SDS011;5304;48.604;2.096;2024-02-21T07:39:39;16.73;;;5.60;;
10511;SDS011;5304;48.604;2.096;2024-02-21T07:42:24;11.60;;;5.03;;
10511;SDS011;5304;48.604;2.096;2024-02-21T07:45:08;11.33;;;5.30;;
10511;SDS011;5304;48.604;2.096;2024-02-21T07:47:53;12.17;;;5.40;;
10511;SDS011;5304;48.604;2.096;2024-02-21T07:50:38;8.53;;;5.20;;
10511;SDS011;5304;48.604;2.096;2024-02-21T07:53:22;9.40;;;5.37;;
10511;SDS011;5304;48.604;2.096;2024-02-21T07:56:06;10.27;;;4.90;;
10511;SDS011;5304;48.604;2.096;2024-02-21T07:58:50;11.97;;;5.30;;
10511;SDS011;5304;48.604;2.096;2024-02-21T08:01:35;9.80;;;5.23;;
10511;SDS011;5304;48.604;2.096;2024-02-21T08:04:19;8.43;;;4.90;;
10511;SDS011;5304;48.604;2.096;2024-02-21T08:07:03;9.90;;;4.97;;
10511;SDS011;5304;48.604;2.096;2024-02-21T08:09:47;10.60;;;4.73;;
10511;SDS011;5304;48.604;2.096;2024-02-21T08:12:32;7.37;;;5.23;;
10511;SDS011;5304;48.604;2.096;2024-02-21T08:15:16;9.70;;;5.10;;
10511;SDS011;5304;48.604;2.096;2024-02-21T08:18:02;11.00;;;5.23;;
10511;SDS011;5304;48.604;2.096;2024-02-21T08:20:47;12.27;;;4.90;;
10511;SDS011;5304;48.604;2.096;2024-02-21T08:23:31;12.37;;;4.80;;
10511;SDS011;5304;48.604;2.096;2024-02-21T08:26:16;9.07;;;4.80;;
10511;SDS011;5304;48.604;2.096;2024-02-21T08:29:00;10.20;;;4.63;;
10511;SDS011;5304;48.604;2.096;2024-02-21T08:31:45;8.90;;;5.23;;
10511;SDS011;5304;48.604;2.096;2024-02-21T08:34:29;8.17;;;4.87;;
10511;SDS011;5304;48.604;2.096;2024-02-21T08:37:17;7.60;;;4.93;;
10511;SDS011;5304;48.604;2.096;2024-02-21T08:40:02;10.60;;;5.30;;
10511;SDS011;5304;48.604;2.096;2024-02-21T08:42:52;8.63;;;4.60;;
10511;SDS011;5304;48.604;2.096;2024-02-21T08:45:37;15.60;;;5.13;;
10511;SDS011;5304;48.604;2.096;2024-02-21T08:48:21;8.17;;;4.30;;
10511;SDS011;5304;48.604;2.096;2024-02-21T08:51:06;9.97;;;4.60;;
10511;SDS011;5304;48.604;2.096;2024-02-21T08:53:50;9.17;;;4.60;;
10511;SDS011;5304;48.604;2.096;2024-02-21T08:56:35;7.53;;;4.47;;
10511;SDS011;5304;48.604;2.096;2024-02-21T08:59:20;11.73;;;4.87;;
10511;SDS011;5304;48.604;2.096;2024-02-21T09:02:04;9.00;;;4.97;;
10511;SDS011;5304;48.604;2.096;2024-02-21T09:04:49;13.20;;;4.73;;
10511;SDS011;5304;48.604;2.096;2024-02-21T09:07:33;9.97;;;4.40;;
10511;SDS011;5304;48.604;2.096;2024-02-21T09:10:17;9.57;;;4.57;;
10511;SDS011;5304;48.604;2.096;2024-02-21T09:13:01;7.97;;;3.87;;
10511;SDS011;5304;48.604;2.096;2024-02-21T09:15:47;9.53;;;4.17;;
10511;SDS011;5304;48.604;2.096;2024-02-21T09:18:32;7.97;;;4.77;;
10511;SDS011;5304;48.604;2.096;2024-02-21T09:21:17;8.33;;;4.17;;
10511;SDS011;5304;48.604;2.096;2024-02-21T09:24:01;7.80;;;4.40;;
10511;SDS011;5304;48.604;2.096;2024-02-21T09:26:46;8.63;;;4.80;;
10511;SDS011;5304;48.604;2.096;2024-02-21T09:29:31;7.97;;;4.63;;
10511;SDS011;5304;48.604;2.096;2024-02-21T09:32:16;9.47;;;4.53;;
10511;SDS011;5304;48.604;2.096;2024-02-21T09:35:03;10.53;;;4.47;;
10511;SDS011;5304;48.604;2.096;2024-02-21T09:37:48;7.17;;;4.03;;
10511;SDS011;5304;48.604;2.096;2024-02-21T09:40:33;6.47;;;4.03;;
10511;SDS011;5304;48.604;2.096;2024-02-21T09:43:21;10.20;;;4.47;;
10511;SDS011;5304;48.604;2.096;2024-02-21T09:46:06;8.37;;;4.83;;
10511;SDS011;5304;48.604;2.096;2024-02-21T09:51:56;6.97;;;4.30;;
10511;SDS011;5304;48.604;2.096;2024-02-21T09:54:43;8.03;;;3.93;;
10511;SDS011;5304;48.604;2.096;2024-02-21T09:57:28;6.70;;;4.13;;
10511;SDS011;5304;48.604;2.096;2024-02-21T10:00:13;8.17;;;4.47;;
10511;SDS011;5304;48.604;2.096;2024-02-21T10:03:04;6.33;;;4.17;;
10511;SDS011;5304;48.604;2.096;2024-02-21T10:05:51;8.63;;;4.50;;
10511;SDS011;5304;48.604;2.096;2024-02-21T10:08:35;9.87;;;4.57;;
10511;SDS011;5304;48.604;2.096;2024-02-21T10:11:23;9.27;;;4.90;;
10511;SDS011;5304;48.604;2.096;2024-02-21T10:14:08;7.17;;;4.27;;
10511;SDS011;5304;48.604;2.096;2024-02-21T10:16:58;8.27;;;5.07;;
10511;SDS011;5304;48.604;2.096;2024-02-21T10:19:46;6.30;;;4.30;;
10511;SDS011;5304;48.604;2.096;2024-02-21T10:22:31;12.50;;;3.93;;
10511;SDS011;5304;48.604;2.096;2024-02-21T10:25:20;6.97;;;4.23;;
10511;SDS011;5304;48.604;2.096;2024-02-21T10:28:04;6.60;;;4.20;;
10511;SDS011;5304;48.604;2.096;2024-02-21T10:30:50;7.70;;;3.73;;
10511;SDS011;5304;48.604;2.096;2024-02-21T10:33:35;9.33;;;4.33;;
10511;SDS011;5304;48.604;2.096;2024-02-21T10:36:19;7.53;;;4.60;;
10511;SDS011;5304;48.604;2.096;2024-02-21T10:39:04;9.60;;;4.37;;
10511;SDS011;5304;48.604;2.096;2024-02-21T10:41:48;9.73;;;4.37;;
10511;SDS011;5304;48.604;2.096;2024-02-21T10:44:33;12.83;;;4.70;;
10511;SDS011;5304;48.604;2.096;2024-02-21T10:47:20;10.60;;;4.53;;
10511;SDS011;5304;48.604;2.096;2024-02-21T10:50:06;10.30;;;4.93;;
10511;SDS011;5304;48.604;2.096;2024-02-21T10:53:19;6.00;;;4.07;;
10511;SDS011;5304;48.604;2.096;2024-02-21T10:56:18;6.90;;;4.20;;
10511;SDS011;5304;48.604;2.096;2024-02-21T10:59:11;8.23;;;4.30;;
10511;SDS011;5304;48.604;2.096;2024-02-21T11:01:57;9.30;;;4.43;;
10511;SDS011;5304;48.604;2.096;2024-02-21T11:04:41;7.30;;;3.70;;
10511;SDS011;5304;48.604;2.096;2024-02-21T11:07:27;7.03;;;4.40;;
10511;SDS011;5304;48.604;2.096;2024-02-21T11:10:24;8.93;;;4.50;;
10511;SDS011;5304;48.604;2.096;2024-02-21T11:13:09;11.30;;;5.50;;
10511;SDS011;5304;48.604;2.096;2024-02-21T11:15:53;8.90;;;5.17;;
10511;SDS011;5304;48.604;2.096;2024-02-21T11:18:38;7.57;;;4.60;;
10511;SDS011;5304;48.604;2.096;2024-02-21T11:21:32;7.80;;;4.07;;
10511;SDS011;5304;48.604;2.096;2024-02-21T11:24:30;8.50;;;4.10;;
10511;SDS011;5304;48.604;2.096;2024-02-21T11:27:19;7.47;;;4.13;;
10511;SDS011;5304;48.604;2.096;2024-02-21T11:30:05;6.40;;;4.00;;
10511;SDS011;5304;48.604;2.096;2024-02-21T11:32:50;8.40;;;5.00;;
10511;SDS011;5304;48.604;2.096;2024-02-21T11:35:42;6.37;;;3.83;;
10511;SDS011;5304;48.604;2.096;2024-02-21T11:38:26;8.03;;;4.00;;
10511;SDS011;5304;48.604;2.096;2024-02-21T11:41:11;8.00;;;4.63;;
10511;SDS011;5304;48.604;2.096;2024-02-21T11:43:55;9.30;;;4.33;;
10511;SDS011;5304;48.604;2.096;2024-02-21T11:46:39;6.57;;;4.53;;
10511;SDS011;5304;48.604;2.096;2024-02-21T11:49:29;6.53;;;4.23;;
10511;SDS011;5304;48.604;2.096;2024-02-21T11:52:14;7.83;;;5.00;;
10511;SDS011;5304;48.604;2.096;2024-02-21T11:54:59;10.27;;;4.87;;
10511;SDS011;5304;48.604;2.096;2024-02-21T11:57:48;6.43;;;4.90;;
10511;SDS011;5304;48.604;2.096;2024-02-21T12:00:32;8.40;;;4.37;;
10511;SDS011;5304;48.604;2.096;2024-02-21T12:03:17;10.00;;;5.13;;
10511;SDS011;5304;48.604;2.096;2024-02-21T12:06:05;8.77;;;5.20;;
10511;SDS011;5304;48.604;2.096;2024-02-21T12:08:50;5.67;;;4.27;;
10511;SDS011;5304;48.604;2.096;2024-02-21T12:11:36;5.63;;;4.10;;
10511;SDS011;5304;48.604;2.096;2024-02-21T12:14:21;14.60;;;5.33;;
10511;SDS011;5304;48.604;2.096;2024-02-21T12:17:06;7.97;;;4.40;;
10511;SDS011;5304;48.604;2.096;2024-02-21T12:19:50;11.07;;;4.60;;
10511;SDS011;5304;48.604;2.096;2024-02-21T12:22:35;7.33;;;4.37;;
10511;SDS011;5304;48.604;2.096;2024-02-21T12:25:20;6.70;;;4.20;;
10511;SDS011;5304;48.604;2.096;2024-02-21T12:28:10;8.23;;;4.20;;
10511;SDS011;5304;48.604;2.096;2024-02-21T12:30:54;9.77;;;4.90;;
10511;SDS011;5304;48.604;2.096;2024-02-21T12:33:38;7.53;;;4.33;;
10511;SDS011;5304;48.604;2.096;2024-02-21T12:36:22;6.93;;;4.97;;
10511;SDS011;5304;48.604;2.096;2024-02-21T12:39:07;9.23;;;5.17;;
10511;SDS011;5304;48.604;2.096;2024-02-21T12:41:52;6.97;;;4.60;;
10511;SDS011;5304;48.604;2.096;2024-02-21T12:44:36;7.43;;;3.80;;
10511;SDS011;5304;48.604;2.096;2024-02-21T12:47:20;9.37;;;5.00;;
10511;SDS011;5304;48.604;2.096;2024-02-21T12:50:07;8.27;;;4.27;;
10511;SDS011;5304;48.604;2.096;2024-02-21T12:52:51;8.07;;;4.50;;
10511;SDS011;5304;48.604;2.096;2024-02-21T12:55:36;11.37;;;4.83;;
10511;SDS011;5304;48.604;2.096;2024-02-21T12:58:21;11.23;;;4.53;;
10511;SDS011;5304;48.604;2.096;2024-02-21T13:01:05;8.77;;;4.80;;
10511;SDS011;5304;48.604;2.096;2024-02-21T13:03:50;12.43;;;4.17;;
10511;SDS011;5304;48.604;2.096;2024-02-21T13:06:34;8.03;;;5.00;;
10511;SDS011;5304;48.604;2.096;2024-02-21T13:09:20;7.30;;;4.60;;
10511;SDS011;5304;48.604;2.096;2024-02-21T13:12:04;11.30;;;5.27;;
10511;SDS011;5304;48.604;2.096;2024-02-21T13:14:49;8.57;;;5.53;;
10511;SDS011;5304;48.604;2.096;2024-02-21T13:17:33;7.70;;;4.60;;
10511;SDS011;5304;48.604;2.096;2024-02-21T13:20:17;8.53;;;5.53;;
10511;SDS011;5304;48.604;2.096;2024-02-21T13:23:02;11.60;;;5.00;;
10511;SDS011;5304;48.604;2.096;2024-02-21T13:25:46;11.63;;;6.50;;
10511;SDS011;5304;48.604;2.096;2024-02-21T13:28:31;8.77;;;5.13;;
10511;SDS011;5304;48.604;2.096;2024-02-21T13:31:15;9.60;;;5.33;;
10511;SDS011;5304;48.604;2.096;2024-02-21T13:34:00;10.50;;;5.03;;
10511;SDS011;5304;48.604;2.096;2024-02-21T13:36:44;8.23;;;5.50;;
10511;SDS011;5304;48.604;2.096;2024-02-21T13:39:29;9.07;;;5.80;;
10511;SDS011;5304;48.604;2.096;2024-02-21T13:42:13;9.67;;;5.63;;
10511;SDS011;5304;48.604;2.096;2024-02-21T13:44:57;6.80;;;4.93;;
10511;SDS011;5304;48.604;2.096;2024-02-21T13:47:41;8.37;;;4.77;;
10511;SDS011;5304;48.604;2.096;2024-02-21T13:50:29;8.80;;;6.17;;
10511;SDS011;5304;48.604;2.096;2024-02-21T13:53:14;12.30;;;6.43;;
10511;SDS011;5304;48.604;2.096;2024-02-21T13:56:01;11.83;;;5.47;;
10511;SDS011;5304;48.604;2.096;2024-02-21T13:58:46;8.53;;;5.47;;
10511;SDS011;5304;48.604;2.096;2024-02-21T14:01:31;7.97;;;5.57;;
10511;SDS011;5304;48.604;2.096;2024-02-21T14:04:19;10.77;;;5.67;;
10511;SDS011;5304;48.604;2.096;2024-02-21T14:07:03;11.00;;;6.07;;
10511;SDS011;5304;48.604;2.096;2024-02-21T14:09:48;10.97;;;6.57;;
10511;SDS011;5304;48.604;2.096;2024-02-21T14:12:32;15.30;;;6.60;;
10511;SDS011;5304;48.604;2.096;2024-02-21T14:15:17;13.43;;;7.03;;
10511;SDS011;5304;48.604;2.096;2024-02-21T14:18:01;8.77;;;6.10;;
10511;SDS011;5304;48.604;2.096;2024-02-21T14:20:46;11.53;;;6.77;;
10511;SDS011;5304;48.604;2.096;2024-02-21T14:23:30;13.23;;;6.43;;
10511;SDS011;5304;48.604;2.096;2024-02-21T14:26:17;9.07;;;5.37;;
10511;SDS011;5304;48.604;2.096;2024-02-21T14:29:01;12.27;;;6.47;;
10511;SDS011;5304;48.604;2.096;2024-02-21T14:31:46;11.17;;;6.20;;
10511;SDS011;5304;48.604;2.096;2024-02-21T14:34:31;10.83;;;6.00;;
10511;SDS011;5304;48.604;2.096;2024-02-21T14:37:15;10.80;;;6.17;;
10511;SDS011;5304;48.604;2.096;2024-02-21T14:39:59;15.07;;;7.00;;
10511;SDS011;5304;48.604;2.096;2024-02-21T14:42:47;9.73;;;6.10;;
10511;SDS011;5304;48.604;2.096;2024-02-21T14:45:31;8.53;;;5.27;;
10511;SDS011;5304;48.604;2.096;2024-02-21T14:48:15;11.03;;;7.00;;
10511;SDS011;5304;48.604;2.096;2024-02-21T14:50:59;10.70;;;6.13;;
10511;SDS011;5304;48.604;2.096;2024-02-21T14:53:44;11.27;;;5.93;;
10511;SDS011;5304;48.604;2.096;2024-02-21T14:56:28;9.43;;;6.20;;
10511;SDS011;5304;48.604;2.096;2024-02-21T14:59:12;11.93;;;6.00;;
10511;SDS011;5304;48.604;2.096;2024-02-21T15:01:57;12.13;;;6.67;;
10511;SDS011;5304;48.604;2.096;2024-02-21T15:04:41;13.07;;;6.00;;
10511;SDS011;5304;48.604;2.096;2024-02-21T15:07:25;13.10;;;6.27;;
10511;SDS011;5304;48.604;2.096;2024-02-21T15:10:10;9.17;;;6.27;;
10511;SDS011;5304;48.604;2.096;2024-02-21T15:12:55;10.97;;;6.37;;
10511;SDS011;5304;48.604;2.096;2024-02-21T15:15:40;8.70;;;5.63;;
10511;SDS011;5304;48.604;2.096;2024-02-21T15:18:23;8.80;;;6.03;;
10511;SDS011;5304;48.604;2.096;2024-02-21T15:21:08;10.40;;;5.63;;
10511;SDS011;5304;48.604;2.096;2024-02-21T15:23:57;8.20;;;6.07;;
10511;SDS011;5304;48.604;2.096;2024-02-21T15:26:42;10.53;;;6.10;;
10511;SDS011;5304;48.604;2.096;2024-02-21T15:29:27;12.47;;;6.40;;
10511;SDS011;5304;48.604;2.096;2024-02-21T15:32:11;10.33;;;5.03;;
10511;SDS011;5304;48.604;2.096;2024-02-21T15:34:55;9.57;;;6.20;;
10511;SDS011;5304;48.604;2.096;2024-02-21T15:37:40;10.23;;;5.77;;
10511;SDS011;5304;48.604;2.096;2024-02-21T15:40:24;10.27;;;5.60;;
10511;SDS011;5304;48.604;2.096;2024-02-21T15:43:08;8.83;;;5.87;;
10511;SDS011;5304;48.604;2.096;2024-02-21T15:45:52;9.60;;;6.03;;
10511;SDS011;5304;48.604;2.096;2024-02-21T15:48:37;9.63;;;6.10;;
10511;SDS011;5304;48.604;2.096;2024-02-21T15:51:22;12.10;;;6.30;;
10511;SDS011;5304;48.604;2.096;2024-02-21T15:54:07;11.73;;;5.60;;
10511;SDS011;5304;48.604;2.096;2024-02-21T15:56:54;10.00;;;6.23;;
10511;SDS011;5304;48.604;2.096;2024-02-21T15:59:40;7.30;;;5.73;;
10511;SDS011;5304;48.604;2.096;2024-02-21T16:02:24;10.53;;;5.20;;
10511;SDS011;5304;48.604;2.096;2024-02-21T16:05:08;8.40;;;6.10;;
10511;SDS011;5304;48.604;2.096;2024-02-21T16:07:53;11.27;;;6.83;;
10511;SDS011;5304;48.604;2.096;2024-02-21T16:10:37;9.30;;;6.30;;
10511;SDS011;5304;48.604;2.096;2024-02-21T16:13:21;15.10;;;7.80;;
10511;SDS011;5304;48.604;2.096;2024-02-21T16:16:06;11.10;;;6.63;;
10511;SDS011;5304;48.604;2.096;2024-02-21T16:18:52;10.03;;;6.80;;
10511;SDS011;5304;48.604;2.096;2024-02-21T16:21:36;12.20;;;7.23;;
10511;SDS011;5304;48.604;2.096;2024-02-21T16:24:21;10.17;;;6.23;;
10511;SDS011;5304;48.604;2.096;2024-02-21T16:27:05;9.67;;;6.30;;
10511;SDS011;5304;48.604;2.096;2024-02-21T16:29:52;11.37;;;6.40;;
10511;SDS011;5304;48.604;2.096;2024-02-21T16:32:37;7.10;;;5.33;;
10511;SDS011;5304;48.604;2.096;2024-02-21T16:35:23;12.27;;;6.23;;
10511;SDS011;5304;48.604;2.096;2024-02-21T16:38:07;8.83;;;5.97;;
10511;SDS011;5304;48.604;2.096;2024-02-21T16:40:52;7.60;;;5.90;;
10511;SDS011;5304;48.604;2.096;2024-02-21T16:43:36;9.13;;;6.40;;